createdAt,value
2022-11-24T00:00:22.935Z,76.17
2022-11-24T00:05:44.816Z,76.18
2022-11-24T00:10:46.627Z,76.09
2022-11-24T00:15:48.370Z,76.03
2022-11-24T00:20:53.348Z,76.13
2022-11-24T00:25:55.434Z,76.04
2022-11-24T00:30:57.340Z,76.04
2022-11-24T00:36:00.430Z,76.24
2022-11-24T00:41:02.170Z,76.03
2022-11-24T00:46:04.379Z,75.94
2022-11-24T00:51:10.060Z,75.96
2022-11-24T00:56:12.123Z,75.91
2022-11-24T01:01:18.077Z,75.78
2022-11-24T01:06:26.548Z,75.66
2022-11-24T01:11:50.595Z,75.29
2022-11-24T01:16:52.686Z,75.64
2022-11-24T01:21:54.523Z,75.60
2022-11-24T01:26:56.300Z,75.23
2022-11-24T01:31:58.027Z,75.20
2022-11-24T01:36:59.780Z,75.27
2022-11-24T01:42:01.653Z,75.65
2022-11-24T01:47:12.295Z,75.59
2022-11-24T01:52:33.006Z,75.72
2022-11-24T01:57:59.346Z,75.68
2022-11-24T02:03:01.280Z,75.85
2022-11-24T02:08:04.619Z,76.00
2022-11-24T02:13:06.425Z,75.75
2022-11-24T02:18:08.214Z,75.36
2022-11-24T02:23:42.011Z,75.47
2022-11-24T02:28:43.864Z,75.61
2022-11-24T02:33:46.616Z,75.76
2022-11-24T02:38:48.894Z,75.68
2022-11-24T02:44:01.343Z,75.36
2022-11-24T02:49:03.141Z,75.24
2022-11-24T02:54:04.900Z,75.25
2022-11-24T02:59:06.674Z,75.03
2022-11-24T03:04:08.472Z,75.15
2022-11-24T03:09:11.027Z,75.20
2022-11-24T03:14:12.908Z,75.26
2022-11-24T03:19:14.642Z,75.25
2022-11-24T03:24:16.468Z,75.14
2022-11-24T03:29:18.352Z,74.90
2022-11-24T03:34:20.124Z,75.00
2022-11-24T03:39:21.947Z,75.20
2022-11-24T03:44:23.701Z,75.18
2022-11-24T03:49:25.467Z,74.96
2022-11-24T03:54:27.530Z,74.75
2022-11-24T03:59:29.298Z,74.56
2022-11-24T04:04:31.188Z,74.73
2022-11-24T04:09:33.040Z,75.14
2022-11-24T04:14:35.586Z,74.96
2022-11-24T04:19:37.610Z,74.88
2022-11-24T04:24:39.343Z,75.14
2022-11-24T04:29:41.059Z,74.93
2022-11-24T04:34:43.344Z,74.94
2022-11-24T04:39:45.956Z,74.88
2022-11-24T04:44:47.704Z,74.82
2022-11-24T04:49:49.925Z,74.77
2022-11-24T04:54:52.302Z,74.80
2022-11-24T04:59:54.665Z,74.93
2022-11-24T05:04:56.423Z,75.08
2022-11-24T05:10:17.027Z,74.95
2022-11-24T05:15:18.687Z,74.59
2022-11-24T05:20:21.017Z,74.65
2022-11-24T05:25:22.685Z,74.76
2022-11-24T05:30:24.638Z,74.70
2022-11-24T05:35:26.538Z,74.65
2022-11-24T05:40:28.196Z,74.79
2022-11-24T05:45:29.915Z,74.76
2022-11-24T05:50:32.101Z,74.38
2022-11-24T05:55:35.001Z,75.01
2022-11-24T06:00:36.938Z,75.07
2022-11-24T06:05:38.847Z,75.23
2022-11-24T06:10:40.484Z,75.25
2022-11-24T06:15:42.129Z,75.46
2022-11-24T06:20:53.139Z,75.49
2022-11-24T06:26:06.056Z,75.04
2022-11-24T06:31:10.110Z,74.85
2022-11-24T06:36:14.377Z,74.81
2022-11-24T06:41:16.385Z,74.96
2022-11-24T06:46:18.563Z,74.94
2022-11-24T06:51:20.232Z,74.49
2022-11-24T06:56:22.108Z,74.33
2022-11-24T07:01:27.665Z,74.55
2022-11-24T07:06:29.382Z,74.77
2022-11-24T07:11:30.969Z,74.60
2022-11-24T07:16:33.151Z,74.86
2022-11-24T07:21:34.809Z,74.60
2022-11-24T07:26:37.431Z,74.59
2022-11-24T07:31:39.374Z,74.61
2022-11-24T07:36:42.334Z,74.09
2022-11-24T07:41:43.959Z,73.72
2022-11-24T07:46:46.062Z,73.42
2022-11-24T07:51:47.772Z,73.51
2022-11-24T07:56:49.369Z,73.29
2022-11-24T08:01:51.579Z,72.76
2022-11-24T08:06:53.313Z,73.17
2022-11-24T08:11:54.959Z,73.27
2022-11-24T08:16:57.994Z,73.10
2022-11-24T08:22:00.419Z,72.84
2022-11-24T08:27:02.436Z,72.56
2022-11-24T08:32:04.581Z,72.41
2022-11-24T08:37:06.349Z,72.86
2022-11-24T08:42:08.003Z,72.79
2022-11-24T08:47:09.664Z,72.61
2022-11-24T08:52:11.262Z,72.47
2022-11-24T08:57:21.454Z,71.83
2022-11-24T09:02:23.680Z,71.81
2022-11-24T09:07:25.369Z,71.67
2022-11-24T09:12:27.723Z,71.99
2022-11-24T09:17:29.333Z,71.62
2022-11-24T09:22:31.647Z,71.64
2022-11-24T09:27:33.301Z,71.82
2022-11-24T09:32:34.925Z,72.07
2022-11-24T09:37:36.597Z,71.87
2022-11-24T09:42:45.237Z,71.91
2022-11-24T09:48:02.591Z,71.61
2022-11-24T09:53:31.767Z,71.63
2022-11-24T09:58:51.190Z,71.25
2022-11-24T10:03:54.270Z,71.48
2022-11-24T10:09:30.526Z,71.66
2022-11-24T10:15:40.212Z,71.53
2022-11-24T10:21:05.240Z,71.42
2022-11-24T10:26:30.533Z,71.02
2022-11-24T10:31:38.694Z,70.82
2022-11-24T10:36:46.668Z,70.97
2022-11-24T10:42:42.127Z,71.17
2022-11-24T10:47:45.095Z,70.98
2022-11-24T10:53:07.607Z,70.76
2022-11-24T10:58:16.647Z,70.54
2022-11-24T11:03:26.466Z,70.56
2022-11-24T11:08:31.405Z,71.01
2022-11-24T11:13:33.073Z,71.01
2022-11-24T11:18:35.520Z,71.25
2022-11-24T11:23:45.496Z,70.81
2022-11-24T11:34:34.647Z,70.90
2022-11-24T11:39:45.382Z,71.24
2022-11-24T11:45:05.001Z,71.34
2022-11-24T11:50:24.018Z,70.37
2022-11-24T11:55:50.203Z,70.41
2022-11-24T12:01:36.887Z,70.57
2022-11-24T12:06:53.899Z,70.60
2022-11-24T12:12:45.836Z,70.29
2022-11-24T12:18:57.100Z,70.59
2022-11-24T12:24:37.212Z,70.85
2022-11-24T12:30:09.093Z,70.84
2022-11-24T12:35:35.264Z,70.72
2022-11-24T12:41:33.528Z,71.28
2022-11-24T12:46:40.295Z,71.29
2022-11-24T12:51:47.653Z,71.92
2022-11-24T12:57:12.905Z,72.29
2022-11-24T13:02:39.289Z,72.47
2022-11-24T13:07:57.007Z,72.64
2022-11-24T13:13:03.379Z,72.77
2022-11-24T13:18:44.645Z,72.61
2022-11-24T13:29:33.790Z,72.55
2022-11-24T13:34:38.313Z,71.92
2022-11-24T13:40:02.987Z,71.94
2022-11-24T13:45:28.888Z,72.29
2022-11-24T13:50:50.754Z,72.33
2022-11-24T13:56:00.368Z,72.58
2022-11-24T14:01:03.474Z,72.57
2022-11-24T14:06:05.539Z,72.79
2022-11-24T14:11:18.074Z,72.78
2022-11-24T14:16:23.149Z,72.91
2022-11-24T14:21:43.764Z,72.61
2022-11-24T14:26:46.898Z,72.59
2022-11-24T14:31:57.700Z,72.94
2022-11-24T14:37:00.870Z,72.88
2022-11-24T14:42:25.070Z,72.98
2022-11-24T14:47:43.839Z,72.90
2022-11-24T14:52:55.869Z,73.10
2022-11-24T14:57:59.554Z,73.68
2022-11-24T15:03:01.231Z,73.65
2022-11-24T15:08:03.205Z,73.56
2022-11-24T15:13:22.129Z,73.37
2022-11-24T15:18:34.783Z,73.07
2022-11-24T15:23:37.334Z,73.12
2022-11-24T15:28:39.972Z,73.32
2022-11-24T15:33:41.857Z,73.18
2022-11-24T15:38:43.465Z,73.40
2022-11-24T15:43:45.362Z,73.84
2022-11-24T15:48:47.044Z,73.93
2022-11-24T15:54:00.391Z,73.86
2022-11-24T15:59:03.897Z,73.67
2022-11-24T16:04:05.574Z,73.78
2022-11-24T16:09:15.801Z,73.73
2022-11-24T16:14:17.489Z,73.54
2022-11-24T16:19:19.123Z,73.21
2022-11-24T16:24:20.781Z,73.41
2022-11-24T16:29:24.099Z,73.53
2022-11-24T16:34:25.678Z,73.66
2022-11-24T16:39:27.312Z,73.28
2022-11-24T16:44:29.038Z,73.37
2022-11-24T16:49:30.726Z,73.45
2022-11-24T16:54:32.585Z,73.35
2022-11-24T16:59:34.687Z,73.64
2022-11-24T17:04:36.566Z,73.74
2022-11-24T17:09:40.801Z,73.51
2022-11-24T17:14:44.345Z,73.76
2022-11-24T17:19:51.761Z,73.83
2022-11-24T17:24:53.382Z,73.92
2022-11-24T17:29:54.997Z,73.84
2022-11-24T17:34:56.592Z,74.13
2022-11-24T17:40:20.640Z,74.16
2022-11-24T17:45:20.229Z,73.92
2022-11-24T17:50:25.780Z,73.68
2022-11-24T17:55:27.850Z,74.04
2022-11-24T18:00:29.725Z,73.55
2022-11-24T18:05:36.100Z,73.89
2022-11-24T18:10:38.248Z,73.80
2022-11-24T18:15:40.493Z,74.12
2022-11-24T18:20:42.085Z,73.82
2022-11-24T18:25:43.686Z,73.84
2022-11-24T18:30:45.424Z,73.70
2022-11-24T18:36:01.214Z,73.25
2022-11-24T18:41:04.751Z,73.03
2022-11-24T18:46:10.957Z,73.38
2022-11-24T18:51:17.067Z,72.88
2022-11-24T18:56:18.728Z,72.92
2022-11-24T19:01:28.154Z,72.43
2022-11-24T19:06:33.140Z,72.86
2022-11-24T19:11:38.407Z,72.94
2022-11-24T19:16:41.052Z,73.00
2022-11-24T19:21:42.847Z,73.20
2022-11-24T19:26:44.776Z,72.68
2022-11-24T19:31:47.308Z,72.76
2022-11-24T19:36:48.993Z,72.88
2022-11-24T19:41:52.424Z,72.40
2022-11-24T19:46:54.045Z,71.90
2022-11-24T19:51:55.646Z,71.53
2022-11-24T19:56:57.251Z,71.89
2022-11-24T20:01:59.522Z,71.94
2022-11-24T20:07:01.295Z,72.33
2022-11-24T20:12:03.416Z,72.80
2022-11-24T20:17:06.093Z,72.64
2022-11-24T20:22:07.698Z,72.61
2022-11-24T20:27:09.440Z,72.56
2022-11-24T20:32:16.787Z,72.33
2022-11-24T20:37:18.367Z,71.88
2022-11-24T20:42:20.031Z,71.67
2022-11-24T20:47:21.638Z,71.55
2022-11-24T20:52:23.244Z,71.27
2022-11-24T20:57:24.846Z,71.39
2022-11-24T21:02:26.672Z,71.55
2022-11-24T21:07:28.513Z,71.60
2022-11-24T21:12:30.147Z,71.93
2022-11-24T21:17:31.997Z,71.39
2022-11-24T21:22:34.840Z,71.50
2022-11-24T21:27:36.440Z,71.51
2022-11-24T21:32:38.051Z,71.66
2022-11-24T21:37:39.674Z,71.98
2022-11-24T21:42:41.286Z,72.13
2022-11-24T21:47:45.771Z,72.10
2022-11-24T21:52:47.393Z,72.59
2022-11-24T21:57:48.955Z,72.94
2022-11-24T22:02:50.609Z,73.23
2022-11-24T22:07:52.557Z,73.34
2022-11-24T22:12:54.641Z,72.94
2022-11-24T22:17:57.365Z,72.57
2022-11-24T22:22:58.977Z,72.56
2022-11-24T22:28:00.584Z,72.34
2022-11-24T22:33:02.175Z,72.35
2022-11-24T22:38:03.738Z,72.29
2022-11-24T22:43:05.395Z,72.20
2022-11-24T22:48:07.007Z,72.46
2022-11-24T22:53:08.733Z,72.61
2022-11-24T22:58:10.327Z,72.43
2022-11-24T23:03:12.121Z,72.01
2022-11-24T23:08:13.910Z,71.71
2022-11-24T23:13:15.557Z,71.77
2022-11-24T23:18:17.149Z,71.42
2022-11-24T23:23:18.741Z,71.75
2022-11-24T23:28:20.349Z,71.71
2022-11-24T23:33:21.947Z,71.89
2022-11-24T23:38:29.403Z,71.67
2022-11-24T23:43:32.938Z,71.51
2022-11-24T23:48:35.287Z,71.25
2022-11-24T23:53:37.020Z,71.24
2022-11-24T23:58:38.752Z,71.05
